createdAt,value
2023-01-01T00:01:55.942Z,99814.75
2023-01-01T00:04:41.269Z,99803.72
2023-01-01T00:07:26.644Z,99810.34
2023-01-01T00:10:11.904Z,99815.84
2023-01-01T00:12:58.284Z,99821.00
2023-01-01T00:15:43.692Z,99823.63
2023-01-01T00:18:28.643Z,99829.81
2023-01-01T00:21:14.287Z,99836.72
2023-01-01T00:23:59.439Z,99820.16
2023-01-01T00:26:44.793Z,99852.31
2023-01-01T00:29:30.173Z,99833.88
2023-01-01T00:32:20.760Z,99858.38
2023-01-01T00:35:08.365Z,99843.38
2023-01-01T00:37:55.132Z,99847.22
2023-01-01T00:40:40.316Z,99856.75
2023-01-01T00:43:25.329Z,99881.91
2023-01-01T00:46:11.789Z,99862.81
2023-01-01T00:48:57.252Z,99862.88
2023-01-01T00:51:42.518Z,99850.50
2023-01-01T00:54:27.332Z,99851.31
2023-01-01T00:57:12.407Z,99840.91
2023-01-01T00:59:57.751Z,99871.63
2023-01-01T01:02:43.245Z,99848.19
2023-01-01T01:05:28.604Z,99854.38
2023-01-01T01:08:13.970Z,99868.88
2023-01-01T01:11:05.463Z,99848.00
2023-01-01T01:13:52.983Z,99838.50
2023-01-01T01:16:38.736Z,99831.75
2023-01-01T01:19:23.820Z,99859.72
2023-01-01T01:22:08.618Z,99850.09
2023-01-01T01:24:54.122Z,99868.41
2023-01-01T01:27:39.663Z,99852.75
2023-01-01T01:30:25.060Z,99849.94
2023-01-01T01:33:10.593Z,99862.28
2023-01-01T01:35:55.988Z,99861.41
2023-01-01T01:38:41.012Z,99874.44
2023-01-01T01:41:28.399Z,99859.97
2023-01-01T01:44:46.205Z,99875.63
2023-01-01T01:47:56.379Z,99840.50
2023-01-01T01:50:46.999Z,99840.59
2023-01-01T01:53:35.122Z,99868.63
2023-01-01T01:56:26.995Z,99882.53
2023-01-01T01:59:13.318Z,99881.50
2023-01-01T02:01:59.538Z,99866.88
2023-01-01T02:04:44.724Z,99861.53
2023-01-01T02:07:32.603Z,99865.16
2023-01-01T02:10:18.094Z,99865.25
2023-01-01T02:13:03.427Z,99868.78
2023-01-01T02:15:54.428Z,99866.25
2023-01-01T02:19:12.116Z,99857.28
2023-01-01T02:22:10.870Z,99842.50
2023-01-01T02:25:14.682Z,99833.75
2023-01-01T02:28:14.851Z,99847.81
2023-01-01T02:31:02.061Z,99837.53
2023-01-01T02:33:49.434Z,99836.47
2023-01-01T02:36:38.470Z,99826.97
2023-01-01T02:39:29.319Z,99824.38
2023-01-01T02:42:16.587Z,99818.25
2023-01-01T02:45:02.223Z,99821.84
2023-01-01T02:47:47.370Z,99825.41
2023-01-01T02:50:34.173Z,99809.59
2023-01-01T02:53:37.380Z,99812.25
2023-01-01T02:56:31.849Z,99811.56
2023-01-01T02:59:23.135Z,99813.41
2023-01-01T03:02:11.177Z,99808.25
2023-01-01T03:05:11.595Z,99808.41
2023-01-01T03:08:10.651Z,99832.88
2023-01-01T03:11:08.929Z,99840.47
2023-01-01T03:14:18.346Z,99815.38
2023-01-01T03:17:12.527Z,99815.31
2023-01-01T03:20:01.354Z,99831.88
2023-01-01T03:22:50.745Z,99851.84
2023-01-01T03:25:52.816Z,99860.47
2023-01-01T03:28:48.569Z,99864.84
2023-01-01T03:31:34.225Z,99872.97
2023-01-01T03:34:30.463Z,99878.88
2023-01-01T03:37:23.923Z,99869.25
2023-01-01T03:40:10.150Z,99872.81
2023-01-01T03:43:02.874Z,99893.59
2023-01-01T03:45:50.916Z,99880.63
2023-01-01T03:48:36.467Z,99872.66
2023-01-01T03:51:29.038Z,99873.66
2023-01-01T03:54:41.777Z,99872.00
2023-01-01T03:57:43.456Z,99891.06
2023-01-01T04:00:35.104Z,99890.28
2023-01-01T04:03:31.119Z,99892.97
2023-01-01T04:06:16.694Z,99883.44
2023-01-01T04:09:04.283Z,99882.47
2023-01-01T04:11:50.006Z,99878.28
2023-01-01T04:14:38.069Z,99900.91
2023-01-01T04:17:23.438Z,99913.00
2023-01-01T04:20:09.381Z,99907.75
2023-01-01T04:23:01.393Z,99922.56
2023-01-01T04:25:47.250Z,99925.16
2023-01-01T04:28:32.170Z,99931.22
2023-01-01T04:31:17.457Z,99957.44
2023-01-01T04:34:02.381Z,99961.72
2023-01-01T04:36:47.762Z,99976.66
2023-01-01T04:39:33.218Z,99971.53
2023-01-01T04:42:18.914Z,99969.66
2023-01-01T04:45:04.916Z,99978.50
2023-01-01T04:47:49.950Z,99974.06
2023-01-01T04:50:35.311Z,99980.03
2023-01-01T04:53:20.723Z,99992.28
2023-01-01T04:56:09.239Z,99990.66
2023-01-01T04:58:54.680Z,99994.06
2023-01-01T05:01:39.758Z,99977.50
2023-01-01T05:04:25.124Z,99993.97
2023-01-01T05:07:10.499Z,100000.94
2023-01-01T05:09:55.813Z,100013.19
2023-01-01T05:12:40.759Z,100018.47
2023-01-01T05:15:25.569Z,100020.06
2023-01-01T05:18:10.407Z,100034.91
2023-01-01T05:21:11.341Z,100034.81
2023-01-01T05:23:58.464Z,100034.91
2023-01-01T05:26:45.383Z,100060.13
2023-01-01T05:29:30.483Z,100077.41
2023-01-01T05:34:59.717Z,100040.09
2023-01-01T05:37:45.123Z,100052.25
2023-01-01T05:40:30.963Z,100087.81
2023-01-01T05:43:17.149Z,100076.44
2023-01-01T05:46:04.204Z,100113.06
2023-01-01T05:48:50.227Z,100110.50
2023-01-01T05:57:03.283Z,100107.19
2023-01-01T05:59:48.164Z,100117.56
2023-01-01T06:02:33.238Z,100113.22
2023-01-01T06:05:18.497Z,100123.63
2023-01-01T06:08:03.313Z,100115.00
2023-01-01T06:10:48.631Z,100138.41
2023-01-01T06:13:34.073Z,100144.50
2023-01-01T06:16:19.226Z,100132.31
2023-01-01T06:19:04.721Z,100130.56
2023-01-01T06:21:49.540Z,100109.75
2023-01-01T06:24:38.913Z,100134.94
2023-01-01T06:27:24.497Z,100145.41
2023-01-01T06:30:09.723Z,100162.00
2023-01-01T06:32:54.993Z,100177.63
2023-01-01T06:35:39.849Z,100186.22
2023-01-01T06:38:25.423Z,100189.72
2023-01-01T06:41:12.980Z,100229.59
2023-01-01T06:43:59.271Z,100201.00
2023-01-01T06:46:44.284Z,100203.53
2023-01-01T06:49:29.549Z,100207.13
2023-01-01T06:52:14.815Z,100220.03
2023-01-01T06:54:59.748Z,100212.22
2023-01-01T06:57:45.084Z,100224.41
2023-01-01T07:00:29.829Z,100236.53
2023-01-01T07:03:15.287Z,100249.56
2023-01-01T07:06:00.649Z,100248.66
2023-01-01T07:08:45.578Z,100240.84
2023-01-01T07:11:31.711Z,100250.44
2023-01-01T07:14:16.726Z,100274.69
2023-01-01T07:17:02.067Z,100259.97
2023-01-01T07:19:47.477Z,100282.50
2023-01-01T07:22:33.269Z,100284.19
2023-01-01T07:25:18.598Z,100276.34
2023-01-01T07:28:03.728Z,100275.56
2023-01-01T07:30:49.343Z,100294.59
2023-01-01T07:33:34.696Z,100291.19
2023-01-01T07:36:20.085Z,100303.31
2023-01-01T07:39:05.684Z,100301.59
2023-01-01T07:41:50.910Z,100316.34
2023-01-01T07:44:36.430Z,100295.53
2023-01-01T07:47:23.585Z,100315.47
2023-01-01T07:50:15.823Z,100331.97
2023-01-01T07:53:00.759Z,100325.94
2023-01-01T07:55:46.206Z,100337.25
2023-01-01T07:58:31.163Z,100352.84
2023-01-01T08:01:16.385Z,100358.06
2023-01-01T08:04:01.854Z,100374.53
2023-01-01T08:06:47.250Z,100392.72
2023-01-01T08:09:32.767Z,100378.88
2023-01-01T08:12:18.089Z,100376.28
2023-01-01T08:15:03.189Z,100410.06
2023-01-01T08:17:48.269Z,100407.50
2023-01-01T08:20:34.041Z,100419.63
2023-01-01T08:23:19.201Z,100422.25
2023-01-01T08:26:04.279Z,100443.94
2023-01-01T08:28:55.185Z,100449.13
2023-01-01T08:31:42.592Z,100481.19
2023-01-01T08:34:27.612Z,100484.66
2023-01-01T08:37:14.068Z,100506.28
2023-01-01T08:39:59.289Z,100514.94
2023-01-01T08:42:44.507Z,100530.53
2023-01-01T08:45:30.025Z,100560.78
2023-01-01T08:48:15.371Z,100572.91
2023-01-01T08:51:01.132Z,100572.84
2023-01-01T08:53:50.878Z,100590.13
2023-01-01T08:56:36.509Z,100598.78
2023-01-01T08:59:21.300Z,100575.47
2023-01-01T09:02:06.985Z,100589.28
2023-01-01T09:04:52.355Z,100602.22
2023-01-01T09:07:37.839Z,100604.84
2023-01-01T09:10:23.090Z,100612.63
2023-01-01T09:13:08.384Z,100619.53
2023-01-01T09:15:53.971Z,100636.81
2023-01-01T09:18:39.516Z,100638.53
2023-01-01T09:21:24.604Z,100666.97
2023-01-01T09:24:10.163Z,100689.38
2023-01-01T09:26:55.289Z,100698.94
2023-01-01T09:29:40.458Z,100691.91
2023-01-01T09:32:25.236Z,100703.06
2023-01-01T09:35:10.188Z,100682.41
2023-01-01T09:37:56.151Z,100696.22
2023-01-01T09:41:04.553Z,100712.69
2023-01-01T09:43:58.879Z,100729.06
2023-01-01T09:46:44.480Z,100735.22
2023-01-01T09:49:38.267Z,100741.34
2023-01-01T09:52:26.535Z,100761.38
2023-01-01T09:55:42.581Z,100779.63
2023-01-01T09:58:36.292Z,100776.91
2023-01-01T10:01:47.478Z,100807.19
2023-01-01T10:04:51.598Z,100787.88
2023-01-01T10:07:50.607Z,100793.72
2023-01-01T10:10:39.037Z,100786.66
2023-01-01T10:13:36.887Z,100785.69
2023-01-01T10:16:37.138Z,100784.69
2023-01-01T10:19:35.657Z,100784.38
2023-01-01T10:22:27.232Z,100786.31
2023-01-01T10:25:27.446Z,100785.38
2023-01-01T10:28:23.901Z,100785.31
2023-01-01T10:31:28.427Z,100778.44
2023-01-01T10:34:23.810Z,100783.53
2023-01-01T10:37:10.193Z,100786.75
2023-01-01T10:39:55.510Z,100777.44
2023-01-01T10:42:40.959Z,100759.69
2023-01-01T10:45:58.965Z,100756.94
2023-01-01T10:49:12.711Z,100764.69
2023-01-01T10:51:58.182Z,100785.44
2023-01-01T10:54:43.597Z,100789.88
2023-01-01T10:57:33.808Z,100797.75
2023-01-01T11:00:28.922Z,100781.22
2023-01-01T11:03:18.916Z,100775.09
2023-01-01T11:06:10.614Z,100762.13
2023-01-01T11:08:57.707Z,100750.88
2023-01-01T11:11:45.011Z,100754.28
2023-01-01T11:14:43.175Z,100751.75
2023-01-01T11:17:29.604Z,100757.03
2023-01-01T11:20:20.349Z,100753.63
2023-01-01T11:23:25.963Z,100757.59
2023-01-01T11:26:17.112Z,100732.63
2023-01-01T11:29:16.472Z,100742.22
2023-01-01T11:32:01.905Z,100755.25
2023-01-01T11:34:56.428Z,100759.28
2023-01-01T11:37:43.025Z,100763.50
2023-01-01T11:40:45.038Z,100779.38
2023-01-01T11:43:39.577Z,100774.25
2023-01-01T11:46:25.181Z,100776.91
2023-01-01T11:49:23.954Z,100790.88
2023-01-01T11:52:28.862Z,100785.88
2023-01-01T11:55:20.780Z,100785.75
2023-01-01T11:58:20.098Z,100795.25
2023-01-01T12:01:19.603Z,100800.56
2023-01-01T12:04:16.254Z,100804.09
2023-01-01T12:07:23.454Z,100791.22
2023-01-01T12:10:27.042Z,100792.13
2023-01-01T12:13:24.405Z,100792.97
2023-01-01T12:16:22.531Z,100796.44
2023-01-01T12:19:18.690Z,100799.88
2023-01-01T12:22:17.475Z,100787.69
2023-01-01T12:25:03.619Z,100789.41
2023-01-01T12:28:12.146Z,100767.00
2023-01-01T12:31:19.757Z,100768.81
2023-01-01T12:34:20.363Z,100762.50
2023-01-01T12:37:27.076Z,100742.03
2023-01-01T12:40:37.185Z,100729.22
2023-01-01T12:43:33.409Z,100692.09
2023-01-01T12:46:24.649Z,100671.44
2023-01-01T12:49:46.875Z,100642.28
2023-01-01T12:52:59.952Z,100608.50
2023-01-01T12:56:03.832Z,100606.81
2023-01-01T12:58:56.101Z,100600.75
2023-01-01T13:01:41.667Z,100606.84
2023-01-01T13:04:27.548Z,100612.88
2023-01-01T13:07:14.116Z,100617.22
2023-01-01T13:10:08.478Z,100625.03
2023-01-01T13:12:55.614Z,100619.84
2023-01-01T13:15:40.760Z,100625.88
2023-01-01T13:18:29.070Z,100620.72
2023-01-01T13:21:17.481Z,100631.13
2023-01-01T13:24:05.309Z,100615.53
2023-01-01T13:26:50.887Z,100618.97
2023-01-01T13:29:44.011Z,100630.22
2023-01-01T13:33:10.611Z,100631.09
2023-01-01T13:36:07.997Z,100629.38
2023-01-01T13:39:00.816Z,100644.09
2023-01-01T13:41:46.073Z,100659.66
2023-01-01T13:44:31.146Z,100670.06
2023-01-01T13:47:50.996Z,100666.59
2023-01-01T13:50:39.005Z,100672.66
2023-01-01T13:53:44.498Z,100656.22
2023-01-01T13:56:55.571Z,100664.00
2023-01-01T13:59:59.641Z,100678.72
2023-01-01T14:02:56.627Z,100678.66
2023-01-01T14:05:48.885Z,100676.97
2023-01-01T14:08:36.267Z,100670.00
2023-01-01T14:11:24.679Z,100677.81
2023-01-01T14:14:36.378Z,100686.44
2023-01-01T14:17:21.401Z,100689.03
2023-01-01T14:20:08.134Z,100699.47
2023-01-01T14:22:54.326Z,100696.88
2023-01-01T14:25:41.909Z,100688.22
2023-01-01T14:28:32.588Z,100684.72
2023-01-01T14:31:21.578Z,100688.19
2023-01-01T14:34:32.466Z,100679.50
2023-01-01T14:37:25.112Z,100683.81
2023-01-01T14:40:19.990Z,100685.50
2023-01-01T14:43:09.503Z,100689.81
2023-01-01T14:45:55.684Z,100701.00
2023-01-01T14:48:50.489Z,100694.06
2023-01-01T14:51:42.515Z,100701.88
2023-01-01T14:54:37.029Z,100708.72
2023-01-01T14:57:29.927Z,100723.50
2023-01-01T15:03:15.453Z,100733.84
2023-01-01T15:06:02.790Z,100736.38
2023-01-01T15:08:51.941Z,100747.59
2023-01-01T15:11:37.452Z,100751.06
2023-01-01T15:14:42.585Z,100735.53
2023-01-01T15:17:27.711Z,100738.94
2023-01-01T15:20:22.632Z,100746.72
2023-01-01T15:23:15.852Z,100755.34
2023-01-01T15:26:00.947Z,100744.94
2023-01-01T15:28:45.958Z,100749.34
2023-01-01T15:31:39.805Z,100742.34
2023-01-01T15:34:35.317Z,100741.50
2023-01-01T15:37:31.768Z,100732.78
2023-01-01T15:40:16.930Z,100731.94
2023-01-01T15:43:11.267Z,100737.16
2023-01-01T15:46:15.819Z,100744.00
2023-01-01T15:49:01.039Z,100737.88
2023-01-01T15:51:46.636Z,100740.53
2023-01-01T15:54:38.922Z,100733.59
2023-01-01T15:57:24.265Z,100744.72
2023-01-01T16:00:19.047Z,100736.06
2023-01-01T16:03:18.856Z,100742.94
2023-01-01T16:06:04.977Z,100749.03
2023-01-01T16:08:50.200Z,100749.03
2023-01-01T16:11:35.473Z,100748.16
2023-01-01T16:14:21.271Z,100755.84
2023-01-01T16:17:06.482Z,100753.25
2023-01-01T16:19:51.647Z,100768.84
2023-01-01T16:22:37.212Z,100767.13
2023-01-01T16:25:22.815Z,100770.63
2023-01-01T16:28:08.515Z,100769.81
2023-01-01T16:30:53.571Z,100780.09
2023-01-01T16:33:39.118Z,100790.44
2023-01-01T16:36:25.119Z,100788.72
2023-01-01T16:39:10.647Z,100794.75
2023-01-01T16:41:56.688Z,100787.00
2023-01-01T16:44:42.088Z,100787.03
2023-01-01T16:47:27.163Z,100792.19
2023-01-01T16:50:12.033Z,100781.78
2023-01-01T16:52:56.883Z,100783.53
2023-01-01T16:55:42.185Z,100778.31
2023-01-01T17:01:34.134Z,100797.22
2023-01-01T17:04:19.592Z,100793.81
2023-01-01T17:07:04.543Z,100786.84
2023-01-01T17:09:49.427Z,100785.09
2023-01-01T17:12:34.230Z,100785.09
2023-01-01T17:15:19.126Z,100795.53
2023-01-01T17:18:04.175Z,100796.28
2023-01-01T17:20:49.343Z,100801.38
2023-01-01T17:23:39.925Z,100812.69
2023-01-01T17:26:25.278Z,100807.41
2023-01-01T17:29:10.276Z,100812.66
2023-01-01T17:31:55.486Z,100803.16
2023-01-01T17:34:41.020Z,100813.41
2023-01-01T17:37:25.983Z,100817.69
2023-01-01T17:40:11.891Z,100828.00
2023-01-01T17:42:57.267Z,100829.66
2023-01-01T17:45:43.055Z,100826.13
2023-01-01T17:48:28.142Z,100826.97
2023-01-01T17:51:15.575Z,100826.00
2023-01-01T17:54:00.323Z,100825.06
2023-01-01T17:56:45.263Z,100823.28
2023-01-01T17:59:30.961Z,100822.38
2023-01-01T18:02:16.131Z,100826.69
2023-01-01T18:05:01.604Z,100806.75
2023-01-01T18:07:49.275Z,100807.56
2023-01-01T18:10:34.392Z,100812.63
2023-01-01T18:13:19.761Z,100807.41
2023-01-01T18:16:07.606Z,100813.50
2023-01-01T18:18:53.043Z,100826.38
2023-01-01T18:21:38.140Z,100813.28
2023-01-01T18:24:23.195Z,100813.28
2023-01-01T18:27:08.720Z,100817.66
2023-01-01T18:29:54.190Z,100814.19
2023-01-01T18:32:40.027Z,100799.59
2023-01-01T18:35:25.112Z,100800.47
2023-01-01T18:38:13.886Z,100799.63
2023-01-01T18:41:20.645Z,100805.50
2023-01-01T18:44:14.120Z,100808.06
2023-01-01T18:47:11.621Z,100816.63
2023-01-01T18:50:14.566Z,100812.28
2023-01-01T18:53:11.537Z,100825.13
2023-01-01T18:56:11.202Z,100817.28
2023-01-01T18:58:56.993Z,100817.19
2023-01-01T19:01:42.201Z,100819.66
2023-01-01T19:04:27.397Z,100815.31
2023-01-01T19:07:12.640Z,100816.03
2023-01-01T19:09:59.225Z,100822.78
2023-01-01T19:12:44.747Z,100819.13
2023-01-01T19:15:30.070Z,100825.97
2023-01-01T19:18:28.738Z,100823.38
2023-01-01T19:21:13.796Z,100824.16
2023-01-01T19:24:02.377Z,100824.94
2023-01-01T19:26:47.684Z,100818.81
2023-01-01T19:29:39.428Z,100824.81
2023-01-01T19:32:24.389Z,100821.25
2023-01-01T19:35:14.747Z,100829.88
2023-01-01T19:38:01.998Z,100820.28
2023-01-01T19:40:47.249Z,100822.88
2023-01-01T19:43:32.338Z,100824.53
2023-01-01T19:46:17.330Z,100815.78
2023-01-01T19:49:02.274Z,100808.00
2023-01-01T19:51:47.197Z,100799.28
2023-01-01T19:54:32.419Z,100799.22
2023-01-01T19:57:17.954Z,100794.03
2023-01-01T20:00:03.448Z,100791.50
2023-01-01T20:02:49.164Z,100777.69
2023-01-01T20:05:35.478Z,100780.28
2023-01-01T20:08:20.739Z,100770.81
2023-01-01T20:11:06.806Z,100771.66
2023-01-01T20:13:51.919Z,100764.66
2023-01-01T20:16:37.362Z,100765.63
2023-01-01T20:19:22.878Z,100759.41
2023-01-01T20:22:08.228Z,100755.91
2023-01-01T20:24:53.587Z,100753.25
2023-01-01T20:27:38.391Z,100753.22
2023-01-01T20:30:23.908Z,100746.31
2023-01-01T20:33:09.060Z,100747.13
2023-01-01T20:35:53.987Z,100743.66
2023-01-01T20:38:40.578Z,100737.66
2023-01-01T20:41:26.089Z,100735.00
2023-01-01T20:44:11.597Z,100729.84
2023-01-01T20:46:56.944Z,100719.59
2023-01-01T20:49:43.089Z,100716.09
2023-01-01T20:52:28.478Z,100710.94
2023-01-01T20:55:13.871Z,100703.22
2023-01-01T20:57:59.128Z,100704.06
2023-01-01T21:00:44.043Z,100703.22
2023-01-01T21:03:29.043Z,100698.16
2023-01-01T21:06:20.009Z,100698.16
2023-01-01T21:09:09.006Z,100685.31
2023-01-01T21:11:53.791Z,100687.91
2023-01-01T21:14:38.852Z,100678.47
2023-01-01T21:17:24.536Z,100676.84
2023-01-01T21:20:10.988Z,100670.72
2023-01-01T21:22:59.834Z,100659.63
2023-01-01T21:25:51.406Z,100661.38
2023-01-01T21:28:37.199Z,100650.25
2023-01-01T21:31:22.157Z,100651.03
2023-01-01T21:34:28.753Z,100631.16
2023-01-01T21:37:23.737Z,100611.38
2023-01-01T21:40:29.114Z,100618.41
2023-01-01T21:43:26.322Z,100616.56
2023-01-01T21:46:14.749Z,100602.94
2023-01-01T21:49:28.930Z,100610.69
2023-01-01T21:52:18.750Z,100611.50
2023-01-01T21:55:26.197Z,100607.34
2023-01-01T21:58:17.770Z,100609.88
2023-01-01T22:01:26.571Z,100599.50
2023-01-01T22:04:11.743Z,100590.00
2023-01-01T22:07:09.503Z,100589.09
2023-01-01T22:10:17.379Z,100573.69
2023-01-01T22:13:02.640Z,100561.56
2023-01-01T22:15:47.489Z,100562.50
2023-01-01T22:18:38.791Z,100557.31
2023-01-01T22:21:24.013Z,100559.00
2023-01-01T22:24:25.277Z,100563.34
2023-01-01T22:27:32.468Z,100552.09
2023-01-01T22:30:17.534Z,100547.78
2023-01-01T22:33:09.753Z,100536.56
2023-01-01T22:35:56.625Z,100541.63
2023-01-01T22:38:42.291Z,100553.78
2023-01-01T22:41:27.342Z,100553.75
2023-01-01T22:44:12.513Z,100545.22
2023-01-01T22:46:58.547Z,100532.28
2023-01-01T22:49:47.280Z,100534.78
2023-01-01T22:52:32.436Z,100539.06
2023-01-01T22:55:18.053Z,100532.22
2023-01-01T22:58:03.140Z,100536.56
2023-01-01T23:00:48.654Z,100534.03
2023-01-01T23:03:34.060Z,100520.31
2023-01-01T23:06:19.865Z,100528.16
2023-01-01T23:09:05.878Z,100522.16
2023-01-01T23:11:54.432Z,100523.06
2023-01-01T23:14:39.580Z,100516.19
2023-01-01T23:17:24.860Z,100511.00
2023-01-01T23:20:10.295Z,100510.25
2023-01-01T23:22:55.851Z,100496.44
2023-01-01T23:25:40.903Z,100487.84
2023-01-01T23:28:28.232Z,100488.81
2023-01-01T23:31:24.327Z,100482.84
2023-01-01T23:34:10.935Z,100489.81
2023-01-01T23:36:57.288Z,100488.94
2023-01-01T23:39:42.367Z,100490.75
2023-01-01T23:42:27.134Z,100487.28
2023-01-01T23:45:12.005Z,100489.88
2023-01-01T23:47:57.386Z,100467.47
2023-01-01T23:50:43.428Z,100459.72
2023-01-01T23:53:28.673Z,100440.78
2023-01-01T23:56:14.127Z,100440.72
2023-01-01T23:58:58.963Z,100443.41
